Yarmouth, Maine
Current Conditions -  °F | °C
As of 8:51 PM on Wednesday 26 Nov 2014 (Local Time) from KPWM Reporting Station
Moderate Snow Moderate Snow  
Wind Chill: 24°   Ceiling: 700
Heat Index: 34°   Visibility: 0.25mi
Dew Point: 31°   Wind: 16mph
Humidity: 89%   Direction: 40°NE
Pressure: 29.79"   Gusts: 29mph
Location:  43.8°N, 70.19°W
Report Text: KPWM 270151Z 04014G25KT 1/4SM SN FG OVC007 01/M01 A2979 RMK AO2 PRESFR SLP090 P0011 T00111006
Loading
Personal Weather Stations






























Interactive Weather Map New forecast layout! Learn more

10-Day Weather Forecast

Advertisements
Track Severe Weather on mobile